createdAt,value
2022-11-12T00:01:08.903Z,13.40
2022-11-12T00:03:37.272Z,13.50
2022-11-12T00:06:05.332Z,13.40
2022-11-12T00:08:33.645Z,13.40
2022-11-12T00:11:04.968Z,13.40
2022-11-12T00:13:33.266Z,13.40
2022-11-12T00:16:01.301Z,13.50
2022-11-12T00:18:29.632Z,13.40
2022-11-12T00:20:57.963Z,13.50
2022-11-12T00:23:26.057Z,13.50
2022-11-12T00:25:59.429Z,13.40
2022-11-12T00:28:33.439Z,13.40
2022-11-12T00:31:08.360Z,13.40
2022-11-12T00:33:36.468Z,13.50
2022-11-12T00:36:04.718Z,13.50
2022-11-12T00:38:32.924Z,13.50
2022-11-12T00:41:01.016Z,13.40
2022-11-12T00:43:35.664Z,13.50
2022-11-12T00:46:03.903Z,13.40
2022-11-12T00:48:32.260Z,13.50
2022-11-12T00:51:00.941Z,13.50
2022-11-12T00:53:29.203Z,13.50
2022-11-12T00:56:03.618Z,13.40
2022-11-12T00:58:33.577Z,13.50
2022-11-12T01:01:06.655Z,13.40
2022-11-12T01:03:34.907Z,13.50
2022-11-12T01:06:03.842Z,13.50
2022-11-12T01:08:32.071Z,13.40
2022-11-12T01:11:05.952Z,13.30
2022-11-12T01:13:42.872Z,13.40
2022-11-12T01:16:13.676Z,13.50
2022-11-12T01:18:41.823Z,13.50
2022-11-12T01:21:09.858Z,13.50
2022-11-12T01:23:39.495Z,13.40
2022-11-12T01:26:08.102Z,13.50
2022-11-12T01:28:37.788Z,13.40
2022-11-12T01:31:12.901Z,13.50
2022-11-12T01:33:41.298Z,13.30
2022-11-12T01:36:09.884Z,13.30
2022-11-12T01:38:38.322Z,13.40
2022-11-12T01:41:06.769Z,13.40
2022-11-12T01:43:34.879Z,13.50
2022-11-12T01:46:06.431Z,13.40
2022-11-12T01:48:36.036Z,13.50
2022-11-12T01:51:05.019Z,13.40
2022-11-12T01:53:35.386Z,13.40
2022-11-12T01:56:04.680Z,13.40
2022-11-12T01:58:34.288Z,13.40
2022-11-12T02:01:03.846Z,13.40
2022-11-12T02:03:33.493Z,13.50
2022-11-12T02:06:03.652Z,13.60
2022-11-12T02:08:32.146Z,13.50
2022-11-12T02:11:00.376Z,13.50
2022-11-12T02:13:54.456Z,13.50
2022-11-12T02:16:22.821Z,13.50
2022-11-12T02:18:52.387Z,13.40
2022-11-12T02:21:21.954Z,13.50
2022-11-12T02:24:01.033Z,13.50
2022-11-12T02:26:31.387Z,13.40
2022-11-12T02:28:59.579Z,13.40
2022-11-12T02:31:28.125Z,13.40
2022-11-12T02:33:56.573Z,13.30
2022-11-12T02:36:26.550Z,13.30
2022-11-12T02:38:54.610Z,13.20
2022-11-12T02:41:23.065Z,13.30
2022-11-12T02:43:51.266Z,13.40
2022-11-12T02:46:19.401Z,13.30
2022-11-12T02:48:47.524Z,13.50
2022-11-12T02:51:15.637Z,13.40
2022-11-12T02:53:48.394Z,13.50
2022-11-12T02:56:19.030Z,13.50
2022-11-12T02:58:47.080Z,13.40
2022-11-12T03:01:15.401Z,13.40
2022-11-12T03:03:43.638Z,13.30
2022-11-12T03:06:11.735Z,13.30
2022-11-12T03:08:40.012Z,13.30
2022-11-12T03:11:11.125Z,13.40
2022-11-12T03:13:39.821Z,13.40
2022-11-12T03:16:08.532Z,13.50
2022-11-12T03:18:37.420Z,13.50
2022-11-12T03:21:08.618Z,13.40
2022-11-12T03:23:36.859Z,13.30
2022-11-12T03:26:05.331Z,13.30
2022-11-12T03:28:34.962Z,13.40
2022-11-12T03:31:03.325Z,13.40
2022-11-12T03:33:31.488Z,13.40
2022-11-12T03:35:59.592Z,13.40
2022-11-12T03:38:28.260Z,13.50
2022-11-12T03:40:59.200Z,13.50
2022-11-12T03:43:27.285Z,13.50
2022-11-12T03:45:56.992Z,13.60
2022-11-12T03:48:25.325Z,13.60
2022-11-12T03:50:53.639Z,13.50
2022-11-12T03:53:21.749Z,13.50
2022-11-12T03:55:49.797Z,13.60
2022-11-12T03:58:17.949Z,13.50
2022-11-12T04:00:46.249Z,13.50
2022-11-12T04:03:16.029Z,13.50
2022-11-12T04:06:01.482Z,13.60
2022-11-12T04:08:39.931Z,13.60
2022-11-12T04:11:08.796Z,13.50
2022-11-12T04:13:38.689Z,13.60
2022-11-12T04:16:25.609Z,13.50
2022-11-12T04:19:13.941Z,13.50
2022-11-12T04:21:52.066Z,13.40
2022-11-12T04:24:38.299Z,13.50
2022-11-12T04:27:09.439Z,13.60
2022-11-12T04:30:00.092Z,13.60
2022-11-12T04:32:28.433Z,13.50
2022-11-12T04:34:58.448Z,13.70
2022-11-12T04:37:27.481Z,13.70
2022-11-12T04:39:55.715Z,13.70
2022-11-12T04:42:41.126Z,13.70
2022-11-12T04:45:09.838Z,13.70
2022-11-12T04:47:38.444Z,13.70
2022-11-12T04:50:15.429Z,13.60
2022-11-12T04:52:43.501Z,13.70
2022-11-12T04:55:12.119Z,13.80
2022-11-12T04:57:41.165Z,13.70
2022-11-12T05:00:09.957Z,13.60
2022-11-12T05:02:39.758Z,13.60
2022-11-12T05:05:09.877Z,13.50
2022-11-12T05:07:38.140Z,13.60
2022-11-12T05:10:06.793Z,13.60
2022-11-12T05:12:35.044Z,13.60
2022-11-12T05:15:03.294Z,13.50
2022-11-12T05:17:31.385Z,13.60
2022-11-12T05:20:00.901Z,13.50
2022-11-12T05:22:43.311Z,13.50
2022-11-12T05:25:13.911Z,13.40
2022-11-12T05:27:41.965Z,13.40
2022-11-12T05:30:10.740Z,13.40
2022-11-12T05:32:42.071Z,13.50
2022-11-12T05:35:10.296Z,13.60
2022-11-12T05:37:39.874Z,13.50
2022-11-12T05:40:08.541Z,13.60
2022-11-12T05:42:36.772Z,13.50
2022-11-12T05:45:05.362Z,13.50
2022-11-12T05:47:33.512Z,13.50
2022-11-12T05:50:01.597Z,13.60
2022-11-12T05:52:29.709Z,13.60
2022-11-12T05:54:59.265Z,13.50
2022-11-12T05:57:28.220Z,13.40
2022-11-12T05:59:56.281Z,13.40
2022-11-12T06:02:24.469Z,13.50
2022-11-12T06:04:52.593Z,13.50
2022-11-12T06:07:20.780Z,13.40
2022-11-12T06:09:48.999Z,13.50
2022-11-12T06:12:18.684Z,13.50
2022-11-12T06:14:46.737Z,13.40
2022-11-12T06:17:14.880Z,13.40
2022-11-12T06:19:42.969Z,13.30
2022-11-12T06:22:11.083Z,13.40
2022-11-12T06:24:39.462Z,13.40
2022-11-12T06:27:07.522Z,13.50
2022-11-12T06:29:37.056Z,13.40
2022-11-12T06:32:05.277Z,13.30
2022-11-12T06:34:33.342Z,13.30
2022-11-12T06:37:01.392Z,13.30
2022-11-12T06:39:29.674Z,13.30
2022-11-12T06:41:57.793Z,13.30
2022-11-12T06:44:25.868Z,13.30
2022-11-12T06:46:58.473Z,13.30
2022-11-12T06:49:26.633Z,13.20
2022-11-12T06:51:54.797Z,13.20
2022-11-12T06:54:22.900Z,13.10
2022-11-12T06:56:51.131Z,13.10
2022-11-12T06:59:19.379Z,13.10
2022-11-12T07:01:47.552Z,13.10
2022-11-12T07:04:17.294Z,13.10
2022-11-12T07:06:45.583Z,13.00
2022-11-12T07:09:13.665Z,13.00
2022-11-12T07:11:41.814Z,13.00
2022-11-12T07:14:10.307Z,13.00
2022-11-12T07:16:38.436Z,13.10
2022-11-12T07:19:06.597Z,13.00
2022-11-12T07:21:36.181Z,13.00
2022-11-12T07:24:04.433Z,13.00
2022-11-12T07:26:34.623Z,13.00
2022-11-12T07:29:02.653Z,13.00
2022-11-12T07:31:30.799Z,12.90
2022-11-12T07:33:59.061Z,12.90
2022-11-12T07:36:27.441Z,13.00
2022-11-12T07:38:56.979Z,13.20
2022-11-12T07:41:26.034Z,13.10
2022-11-12T07:43:54.838Z,12.90
2022-11-12T07:46:24.013Z,12.90
2022-11-12T07:48:52.361Z,12.80
2022-11-12T07:51:21.464Z,12.90
2022-11-12T07:53:53.774Z,12.90
2022-11-12T07:56:27.764Z,12.80
2022-11-12T07:58:56.177Z,13.00
2022-11-12T08:01:29.836Z,13.00
2022-11-12T08:03:58.274Z,13.00
2022-11-12T08:06:26.791Z,13.00
2022-11-12T08:08:54.892Z,13.10
2022-11-12T08:11:23.358Z,13.00
2022-11-12T08:13:53.122Z,13.00
2022-11-12T08:16:21.518Z,13.00
2022-11-12T08:18:49.587Z,13.10
2022-11-12T08:21:18.569Z,13.20
2022-11-12T08:23:49.016Z,13.20
2022-11-12T08:26:18.172Z,13.30
2022-11-12T08:28:46.389Z,13.30
2022-11-12T08:31:16.818Z,13.30
2022-11-12T08:33:45.276Z,13.30
2022-11-12T08:36:17.011Z,13.30
2022-11-12T08:38:45.343Z,13.30
2022-11-12T08:41:14.721Z,13.40
2022-11-12T08:43:43.372Z,13.30
2022-11-12T08:46:11.485Z,13.40
2022-11-12T08:48:41.695Z,13.40
2022-11-12T08:51:09.780Z,13.40
2022-11-12T08:53:37.928Z,13.40
2022-11-12T08:56:06.202Z,13.50
2022-11-12T08:58:34.261Z,13.60
2022-11-12T09:01:06.012Z,13.60
2022-11-12T09:03:34.150Z,13.50
2022-11-12T09:06:05.051Z,13.50
2022-11-12T09:08:34.338Z,13.60
2022-11-12T09:11:02.561Z,13.60
2022-11-12T09:13:30.646Z,13.60
2022-11-12T09:16:03.363Z,13.60
2022-11-12T09:18:32.016Z,13.60
2022-11-12T09:21:08.485Z,13.60
2022-11-12T09:23:37.213Z,13.70
2022-11-12T09:26:05.833Z,13.70
2022-11-12T09:28:34.362Z,13.70
2022-11-12T09:31:03.033Z,13.70
2022-11-12T09:33:32.120Z,13.70
2022-11-12T09:36:01.965Z,13.80
2022-11-12T09:38:31.417Z,13.80
2022-11-12T09:41:06.915Z,13.90
2022-11-12T09:43:36.163Z,13.90
2022-11-12T09:46:26.614Z,14.00
2022-11-12T09:49:02.788Z,13.90
2022-11-12T09:51:33.217Z,14.00
2022-11-12T09:54:04.210Z,14.00
2022-11-12T09:56:32.578Z,14.00
2022-11-12T09:59:00.761Z,14.00
2022-11-12T10:01:39.559Z,14.00
2022-11-12T10:04:14.952Z,14.00
2022-11-12T10:06:47.003Z,14.10
2022-11-12T10:09:18.231Z,14.10
2022-11-12T10:12:14.242Z,14.10
2022-11-12T10:14:52.660Z,14.10
2022-11-12T10:17:25.030Z,14.20
2022-11-12T10:19:59.716Z,14.20
2022-11-12T10:22:33.454Z,14.20
2022-11-12T10:25:11.523Z,14.20
2022-11-12T10:27:41.539Z,14.20
2022-11-12T10:30:14.757Z,14.20
2022-11-12T10:32:44.527Z,14.20
2022-11-12T10:35:13.521Z,14.20
2022-11-12T10:37:43.987Z,14.20
2022-11-12T10:40:30.906Z,14.20
2022-11-12T10:43:00.662Z,14.30
2022-11-12T10:45:28.938Z,14.30
2022-11-12T10:47:57.204Z,14.30
2022-11-12T10:50:28.962Z,14.40
2022-11-12T10:52:58.700Z,14.40
2022-11-12T10:55:27.776Z,14.40
2022-11-12T10:58:19.728Z,14.40
2022-11-12T11:00:55.209Z,14.40
2022-11-12T11:03:24.589Z,14.40
2022-11-12T11:05:54.462Z,14.40
2022-11-12T11:08:40.578Z,14.50
2022-11-12T11:11:22.351Z,14.60
2022-11-12T11:13:55.966Z,14.60
2022-11-12T11:16:24.797Z,14.60
2022-11-12T11:18:55.130Z,14.60
2022-11-12T11:21:42.593Z,14.50
2022-11-12T11:24:22.254Z,14.60
2022-11-12T11:26:57.956Z,14.60
2022-11-12T11:29:36.816Z,14.50
2022-11-12T11:32:09.326Z,14.60
2022-11-12T11:34:41.738Z,14.60
2022-11-12T11:37:19.119Z,14.60
2022-11-12T11:39:50.825Z,14.60
2022-11-12T11:42:26.801Z,14.60
2022-11-12T11:45:02.634Z,14.60
2022-11-12T11:47:57.671Z,14.20
2022-11-12T11:50:28.674Z,14.50
2022-11-12T11:53:02.466Z,14.50
2022-11-12T11:55:37.016Z,14.50
2022-11-12T11:58:14.075Z,14.50
2022-11-12T12:00:47.740Z,14.50
2022-11-12T12:03:20.417Z,14.50
2022-11-12T12:05:55.149Z,14.40
2022-11-12T12:08:26.221Z,14.50
2022-11-12T12:11:09.068Z,14.50
2022-11-12T12:13:42.937Z,14.40
2022-11-12T12:16:25.641Z,14.40
2022-11-12T12:18:55.803Z,14.40
2022-11-12T12:21:26.157Z,14.40
2022-11-12T12:23:57.509Z,14.40
2022-11-12T12:26:28.174Z,14.40
2022-11-12T12:28:59.157Z,14.40
2022-11-12T12:31:31.142Z,14.30
2022-11-12T12:34:02.827Z,14.30
2022-11-12T12:36:32.632Z,14.20
2022-11-12T12:39:06.280Z,14.20
2022-11-12T12:41:40.308Z,14.20
2022-11-12T12:44:10.324Z,14.20
2022-11-12T12:46:42.031Z,14.20
2022-11-12T12:49:14.565Z,14.20
2022-11-12T12:51:42.868Z,14.10
2022-11-12T12:54:29.635Z,14.10
2022-11-12T12:56:57.726Z,14.20
2022-11-12T12:59:25.948Z,14.10
2022-11-12T13:01:59.969Z,14.10
2022-11-12T13:04:46.462Z,14.10
2022-11-12T13:07:14.798Z,14.10
2022-11-12T13:09:43.135Z,13.90
2022-11-12T13:12:23.415Z,13.90
2022-11-12T13:15:09.301Z,13.90
2022-11-12T13:17:53.352Z,14.00
2022-11-12T13:20:39.013Z,14.00
2022-11-12T13:23:10.684Z,13.80
2022-11-12T13:25:39.249Z,13.70
2022-11-12T13:28:08.849Z,13.60
2022-11-12T13:30:55.641Z,13.60
2022-11-12T13:33:28.401Z,13.50
2022-11-12T13:36:18.213Z,13.40
2022-11-12T13:38:46.504Z,13.40
2022-11-12T13:41:17.529Z,13.40
2022-11-12T13:43:47.380Z,13.40
2022-11-12T13:46:25.753Z,13.30
2022-11-12T13:48:58.104Z,13.30
2022-11-12T13:51:29.634Z,13.20
2022-11-12T13:53:57.694Z,13.20
2022-11-12T13:56:28.420Z,13.30
2022-11-12T13:58:56.699Z,13.00
2022-11-12T14:01:25.630Z,13.20
2022-11-12T14:03:55.384Z,13.30
2022-11-12T14:06:25.905Z,13.10
2022-11-12T14:08:59.789Z,13.10
2022-11-12T14:11:39.157Z,13.00
2022-11-12T14:14:10.292Z,13.00
2022-11-12T14:16:41.949Z,12.90
2022-11-12T14:19:31.754Z,12.80
2022-11-12T14:22:01.180Z,12.90
2022-11-12T14:24:29.414Z,12.70
2022-11-12T14:26:57.508Z,12.80
2022-11-12T14:29:29.932Z,12.70
2022-11-12T14:32:01.891Z,12.60
2022-11-12T14:34:33.114Z,12.50
2022-11-12T14:37:01.300Z,12.40
2022-11-12T14:39:30.849Z,12.40
2022-11-12T14:42:02.296Z,12.40
2022-11-12T14:44:33.960Z,12.30
2022-11-12T14:47:02.756Z,12.30
2022-11-12T14:49:36.531Z,12.40
2022-11-12T14:52:10.625Z,12.30
2022-11-12T14:54:41.923Z,12.30
2022-11-12T14:57:15.221Z,12.20
2022-11-12T14:59:43.496Z,12.30
2022-11-12T15:02:31.657Z,12.30
2022-11-12T15:05:13.489Z,12.10
2022-11-12T15:07:52.408Z,12.10
2022-11-12T15:10:31.398Z,12.00
2022-11-12T15:13:06.402Z,11.90
2022-11-12T15:15:35.272Z,11.80
2022-11-12T15:18:05.555Z,12.00
2022-11-12T15:20:35.365Z,11.80
2022-11-12T15:23:03.910Z,11.80
2022-11-12T15:25:32.628Z,11.80
2022-11-12T15:28:13.403Z,11.80
2022-11-12T15:30:41.806Z,11.70
2022-11-12T15:33:10.490Z,11.70
2022-11-12T15:35:43.953Z,11.70
2022-11-12T15:38:16.900Z,11.80
2022-11-12T15:40:46.313Z,11.80
2022-11-12T15:43:16.213Z,11.80
2022-11-12T15:45:44.413Z,11.90
2022-11-12T15:48:13.282Z,11.90
2022-11-12T15:50:42.810Z,11.80
2022-11-12T15:53:11.099Z,11.70
2022-11-12T15:55:39.764Z,11.70
2022-11-12T15:58:08.661Z,11.60
2022-11-12T16:00:37.650Z,11.60
2022-11-12T16:03:12.198Z,11.60
2022-11-12T16:05:40.365Z,11.50
2022-11-12T16:08:13.051Z,11.40
2022-11-12T16:10:41.675Z,11.40
2022-11-12T16:13:14.128Z,11.30
2022-11-12T16:15:42.321Z,11.20
2022-11-12T16:18:10.955Z,11.20
2022-11-12T16:20:39.592Z,11.20
2022-11-12T16:23:09.112Z,11.20
2022-11-12T16:25:39.436Z,11.20
2022-11-12T16:28:11.436Z,11.10
2022-11-12T16:30:39.694Z,11.00
2022-11-12T16:33:07.912Z,11.00
2022-11-12T16:35:36.812Z,11.00
2022-11-12T16:38:06.832Z,10.90
2022-11-12T16:40:36.452Z,10.90
2022-11-12T16:43:04.510Z,11.20
2022-11-12T16:45:34.968Z,11.00
2022-11-12T16:48:06.320Z,11.10
2022-11-12T16:50:34.598Z,11.00
2022-11-12T16:53:02.625Z,10.90
2022-11-12T16:55:31.678Z,10.80
2022-11-12T16:58:01.154Z,10.80
2022-11-12T17:00:29.339Z,10.80
2022-11-12T17:02:57.613Z,10.80
2022-11-12T17:05:26.444Z,10.90
2022-11-12T17:07:56.797Z,10.70
2022-11-12T17:10:25.593Z,10.60
2022-11-12T17:12:53.905Z,10.50
2022-11-12T17:15:23.495Z,10.60
2022-11-12T17:17:54.305Z,10.60
2022-11-12T17:20:22.465Z,10.50
2022-11-12T17:22:50.567Z,10.40
2022-11-12T17:25:26.340Z,10.30
2022-11-12T17:27:54.450Z,10.30
2022-11-12T17:30:22.686Z,10.30
2022-11-12T17:32:50.837Z,10.10
2022-11-12T17:35:21.874Z,10.00
2022-11-12T17:37:51.469Z,10.10
2022-11-12T17:40:19.510Z,10.00
2022-11-12T17:42:49.011Z,10.00
2022-11-12T17:45:17.288Z,9.80
2022-11-12T17:47:45.419Z,9.80
2022-11-12T17:50:13.512Z,9.80
2022-11-12T17:52:41.778Z,9.70
2022-11-12T17:55:10.552Z,9.80
2022-11-12T17:57:38.601Z,9.70
2022-11-12T18:00:09.032Z,9.50
2022-11-12T18:02:37.168Z,9.40
2022-11-12T18:05:05.491Z,9.40
2022-11-12T18:07:33.704Z,9.30
2022-11-12T18:10:01.887Z,9.40
2022-11-12T18:12:29.978Z,9.40
2022-11-12T18:14:59.389Z,9.40
2022-11-12T18:17:28.838Z,9.50
2022-11-12T18:19:56.896Z,9.40
2022-11-12T18:22:25.033Z,9.30
2022-11-12T18:24:53.308Z,9.20
2022-11-12T18:27:21.582Z,9.20
2022-11-12T18:29:49.753Z,9.30
2022-11-12T18:32:17.795Z,9.40
2022-11-12T18:34:47.429Z,9.30
2022-11-12T18:37:15.575Z,9.30
2022-11-12T18:39:43.601Z,9.30
2022-11-12T18:42:11.708Z,9.30
2022-11-12T18:44:39.841Z,9.40
2022-11-12T18:47:08.165Z,9.40
2022-11-12T18:49:36.228Z,9.30
2022-11-12T18:52:05.985Z,9.40
2022-11-12T18:54:34.272Z,9.30
2022-11-12T18:57:02.376Z,9.40
2022-11-12T18:59:32.761Z,9.30
2022-11-12T19:02:00.893Z,9.30
2022-11-12T19:04:29.192Z,9.30
2022-11-12T19:06:57.720Z,9.40
2022-11-12T19:09:27.481Z,9.30
2022-11-12T19:11:55.569Z,9.20
2022-11-12T19:14:24.057Z,9.30
2022-11-12T19:16:52.370Z,9.10
2022-11-12T19:19:20.451Z,9.10
2022-11-12T19:21:48.984Z,9.10
2022-11-12T19:24:17.321Z,9.00
2022-11-12T19:26:47.028Z,9.00
2022-11-12T19:29:15.148Z,8.90
2022-11-12T19:31:46.090Z,8.90
2022-11-12T19:34:14.368Z,8.90
2022-11-12T19:36:42.532Z,8.80
2022-11-12T19:39:10.664Z,8.80
2022-11-12T19:41:39.024Z,8.70
2022-11-12T19:44:11.564Z,8.60
2022-11-12T19:46:39.757Z,8.70
2022-11-12T19:49:07.862Z,8.70
2022-11-12T19:51:36.084Z,8.70
2022-11-12T19:54:04.558Z,8.70
2022-11-12T19:56:34.262Z,8.70
2022-11-12T19:59:04.291Z,8.70
2022-11-12T20:01:36.436Z,8.80
2022-11-12T20:04:07.753Z,8.90
2022-11-12T20:06:37.691Z,8.90
2022-11-12T20:09:05.965Z,9.10
2022-11-12T20:11:35.438Z,9.20
2022-11-12T20:14:03.810Z,9.20
2022-11-12T20:16:33.452Z,9.10
2022-11-12T20:19:01.622Z,9.20
2022-11-12T20:21:31.006Z,9.00
2022-11-12T20:23:59.424Z,9.00
2022-11-12T20:26:27.601Z,9.00
2022-11-12T20:28:55.723Z,9.00
2022-11-12T20:31:23.976Z,9.00
2022-11-12T20:33:53.466Z,9.20
2022-11-12T20:36:22.362Z,9.10
2022-11-12T20:38:53.258Z,9.00
2022-11-12T20:41:22.361Z,8.90
2022-11-12T20:43:53.356Z,8.90
2022-11-12T20:46:22.409Z,8.90
2022-11-12T20:48:50.773Z,9.00
2022-11-12T20:51:25.365Z,8.70
2022-11-12T20:53:59.939Z,8.70
2022-11-12T20:56:29.765Z,8.60
2022-11-12T20:58:58.344Z,8.70
2022-11-12T21:01:27.279Z,8.60
2022-11-12T21:03:55.638Z,8.60
2022-11-12T21:06:26.623Z,8.50
2022-11-12T21:08:54.717Z,8.40
2022-11-12T21:11:23.893Z,8.40
2022-11-12T21:13:52.038Z,8.40
2022-11-12T21:16:20.304Z,8.30
2022-11-12T21:18:48.539Z,8.20
2022-11-12T21:21:18.451Z,8.20
2022-11-12T21:23:49.484Z,8.10
2022-11-12T21:26:18.288Z,8.00
2022-11-12T21:28:49.411Z,8.00
2022-11-12T21:31:18.212Z,7.90
2022-11-12T21:33:56.296Z,8.00
2022-11-12T21:36:24.808Z,8.00
2022-11-12T21:38:54.528Z,8.00
2022-11-12T21:41:23.367Z,8.00
2022-11-12T21:43:51.447Z,7.80
2022-11-12T21:46:23.327Z,7.70
2022-11-12T21:48:55.056Z,7.70
2022-11-12T21:51:24.193Z,7.40
2022-11-12T21:53:55.982Z,7.40
2022-11-12T21:56:24.938Z,7.30
2022-11-12T21:58:53.585Z,7.30
2022-11-12T22:01:22.654Z,7.30
2022-11-12T22:03:51.520Z,7.20
2022-11-12T22:06:20.546Z,7.20
2022-11-12T22:08:48.924Z,7.10
2022-11-12T22:11:18.852Z,6.90
2022-11-12T22:13:47.433Z,6.70
2022-11-12T22:16:16.929Z,6.70
2022-11-12T22:18:46.624Z,6.60
2022-11-12T22:21:18.932Z,6.50
2022-11-12T22:23:47.332Z,6.40
2022-11-12T22:26:16.117Z,6.40
2022-11-12T22:28:45.926Z,6.20
2022-11-12T22:31:15.028Z,6.30
2022-11-12T22:33:43.213Z,6.30
2022-11-12T22:36:12.753Z,6.30
2022-11-12T22:38:41.588Z,6.20
2022-11-12T22:41:10.704Z,6.20
2022-11-12T22:43:41.815Z,6.00
2022-11-12T22:46:13.322Z,6.10
2022-11-12T22:48:41.506Z,6.10
2022-11-12T22:51:11.341Z,6.10
2022-11-12T22:53:39.457Z,6.10
2022-11-12T22:56:08.918Z,6.00
2022-11-12T22:58:37.601Z,6.10
2022-11-12T23:01:06.421Z,6.10
2022-11-12T23:03:38.313Z,5.90
2022-11-12T23:06:08.485Z,5.80
2022-11-12T23:08:37.210Z,6.00
2022-11-12T23:11:05.910Z,6.00
2022-11-12T23:13:34.417Z,5.90
2022-11-12T23:16:02.990Z,6.00
2022-11-12T23:18:31.047Z,6.10
2022-11-12T23:21:04.008Z,6.30
2022-11-12T23:23:32.341Z,6.40
2022-11-12T23:26:04.301Z,6.50
2022-11-12T23:28:32.384Z,6.40
2022-11-12T23:31:00.594Z,6.40
2022-11-12T23:33:28.677Z,6.20
2022-11-12T23:36:04.182Z,6.20
2022-11-12T23:38:34.156Z,6.10
2022-11-12T23:41:02.697Z,6.10
2022-11-12T23:43:31.092Z,5.80
2022-11-12T23:45:59.235Z,5.60
2022-11-12T23:48:27.738Z,5.60
2022-11-12T23:51:02.218Z,5.70
2022-11-12T23:53:33.506Z,5.70
2022-11-12T23:56:03.153Z,5.70
2022-11-12T23:58:31.632Z,5.60
